createdAt,value
2017-09-02T00:00:28.189Z,14.2
2017-09-02T00:01:28.172Z,14.16
2017-09-02T00:02:28.148Z,14.26
2017-09-02T00:03:28.119Z,14.13
2017-09-02T00:04:28.128Z,14.17
2017-09-02T00:05:28.082Z,14.2
2017-09-02T00:06:28.055Z,14.16
2017-09-02T00:07:28.038Z,14.24
2017-09-02T00:08:28.217Z,14.2
2017-09-02T00:09:27.989Z,14.08
2017-09-02T00:10:27.970Z,14.09
2017-09-02T00:11:27.962Z,14.08
2017-09-02T00:12:27.928Z,14.11
2017-09-02T00:13:27.599Z,14.12
2017-09-02T00:14:27.892Z,14.12
2017-09-02T00:15:27.558Z,14.11
2017-09-02T00:16:27.873Z,14.11
2017-09-02T00:17:27.819Z,14.13
2017-09-02T00:18:27.495Z,14.08
2017-09-02T00:19:27.775Z,14.05
2017-09-02T00:20:27.762Z,14.12
2017-09-02T00:21:27.427Z,14.12
2017-09-02T00:22:27.711Z,14.08
2017-09-02T00:23:27.685Z,14.11
2017-09-02T00:24:27.665Z,14.08
2017-09-02T00:25:27.657Z,14.09
2017-09-02T00:26:27.621Z,14.08
2017-09-02T00:27:27.604Z,14.12
2017-09-02T00:28:27.576Z,14.12
2017-09-02T00:29:27.617Z,14.11
2017-09-02T00:30:27.544Z,14.06
2017-09-02T00:31:27.517Z,14.11
2017-09-02T00:32:27.489Z,14.08
2017-09-02T00:33:27.469Z,14.13
2017-09-02T00:34:27.452Z,14.08
2017-09-02T00:35:27.458Z,14.09
2017-09-02T00:36:27.409Z,14.16
2017-09-02T00:37:27.393Z,14.09
2017-09-02T00:38:27.050Z,14.12
2017-09-02T00:39:27.337Z,14.08
2017-09-02T00:40:27.320Z,14.06
2017-09-02T00:41:27.296Z,14.08
2017-09-02T00:42:27.274Z,14.12
2017-09-02T00:43:27.303Z,14.11
2017-09-02T00:44:27.235Z,14.21
2017-09-02T00:45:27.216Z,14.04
2017-09-02T00:46:27.186Z,14.09
2017-09-02T00:47:27.173Z,14.09
2017-09-02T00:48:27.153Z,14.02
2017-09-02T00:49:26.813Z,14.02
2017-09-02T00:50:27.320Z,14.02
2017-09-02T00:51:27.131Z,13.99
2017-09-02T00:52:27.064Z,14.02
2017-09-02T00:53:27.034Z,14.05
2017-09-02T00:54:27.019Z,14.05
2017-09-02T00:55:26.996Z,13.99
2017-09-02T00:56:26.975Z,13.98
2017-09-02T00:57:26.948Z,13.93
2017-09-02T00:58:26.974Z,14.04
2017-09-02T00:59:26.906Z,14.06
2017-09-02T01:00:26.890Z,13.99
2017-09-02T01:01:26.864Z,13.99
2017-09-02T01:02:26.843Z,13.94
2017-09-02T01:03:26.824Z,14.08
2017-09-02T01:04:26.796Z,13.96
2017-09-02T01:05:26.785Z,14.02
2017-09-02T01:06:26.754Z,13.94
2017-09-02T01:07:26.735Z,14.02
2017-09-02T01:08:26.404Z,13.93
2017-09-02T01:09:26.690Z,13.86
2017-09-02T01:10:26.677Z,13.88
2017-09-02T01:11:26.645Z,13.88
2017-09-02T01:12:26.631Z,13.86
2017-09-02T01:13:26.604Z,13.87
2017-09-02T01:14:26.590Z,13.72
2017-09-02T01:15:26.772Z,13.86
2017-09-02T01:16:26.544Z,13.83
2017-09-02T01:18:26.497Z,13.87
2017-09-02T01:19:26.480Z,13.87
2017-09-02T01:20:26.451Z,13.84
2017-09-02T01:21:26.429Z,13.88
2017-09-02T01:22:26.409Z,13.94
2017-09-02T01:23:26.386Z,13.94
2017-09-02T01:24:26.362Z,13.91
2017-09-02T01:25:26.033Z,13.93
2017-09-02T01:26:26.320Z,13.84
2017-09-02T01:27:25.987Z,13.94
2017-09-02T01:28:26.271Z,13.87
2017-09-02T01:29:26.255Z,13.91
2017-09-02T01:30:26.231Z,13.98
2017-09-02T01:31:26.216Z,13.9
2017-09-02T01:32:26.247Z,14.05
2017-09-02T01:33:25.853Z,13.93
2017-09-02T01:34:26.142Z,14.01
2017-09-02T01:35:26.123Z,14.02
2017-09-02T01:36:26.110Z,14.09
2017-09-02T01:37:26.083Z,13.99
2017-09-02T01:38:26.062Z,14.01
2017-09-02T01:39:26.034Z,14.05
2017-09-02T01:40:26.017Z,14.05
2017-09-02T01:41:25.992Z,14.09
2017-09-02T01:42:25.972Z,14.01
2017-09-02T01:43:25.952Z,14.04
2017-09-02T01:44:25.926Z,13.99
2017-09-02T01:45:25.598Z,14.02
2017-09-02T01:46:25.880Z,14.04
2017-09-02T01:47:25.858Z,14.05
2017-09-02T01:48:25.851Z,13.98
2017-09-02T01:49:25.822Z,14.01
2017-09-02T01:50:25.801Z,13.96
2017-09-02T01:51:25.779Z,13.94
2017-09-02T01:52:25.756Z,13.91
2017-09-02T01:53:25.737Z,13.98
2017-09-02T01:54:25.757Z,13.9
2017-09-02T01:55:25.689Z,13.88
2017-09-02T01:56:25.668Z,13.96
2017-09-02T01:57:25.642Z,13.93
2017-09-02T01:58:25.321Z,13.99
2017-09-02T01:59:25.596Z,13.94
2017-09-02T02:00:25.583Z,14.01
2017-09-02T02:01:25.555Z,13.99
2017-09-02T02:02:25.538Z,13.96
2017-09-02T02:03:25.523Z,13.93
2017-09-02T02:04:25.490Z,13.94
2017-09-02T02:05:25.469Z,13.96
2017-09-02T02:06:25.449Z,13.93
2017-09-02T02:07:25.125Z,13.96
2017-09-02T02:08:25.408Z,13.98
2017-09-02T02:09:25.076Z,13.98
2017-09-02T02:10:25.408Z,13.8
2017-09-02T02:11:25.345Z,13.9
2017-09-02T02:12:25.008Z,13.9
2017-09-02T02:13:24.985Z,13.83
2017-09-02T02:14:24.965Z,13.84
2017-09-02T02:15:24.944Z,13.9
2017-09-02T02:16:25.227Z,13.87
2017-09-02T02:17:25.208Z,13.88
2017-09-02T02:18:25.179Z,13.88
2017-09-02T02:19:25.164Z,13.87
2017-09-02T02:20:24.832Z,13.86
2017-09-02T02:21:25.119Z,13.87
2017-09-02T02:22:24.790Z,13.91
2017-09-02T02:23:24.768Z,13.87
2017-09-02T02:24:25.054Z,13.93
2017-09-02T02:25:25.234Z,13.86
2017-09-02T02:26:25.015Z,13.91
2017-09-02T02:27:24.989Z,13.9
2017-09-02T02:28:24.664Z,13.91
2017-09-02T02:29:24.939Z,13.84
2017-09-02T02:30:24.985Z,13.9
2017-09-02T02:31:24.910Z,13.93
2017-09-02T02:32:24.883Z,13.83
2017-09-02T02:33:24.858Z,13.91
2017-09-02T02:34:24.531Z,13.84
2017-09-02T02:35:24.887Z,13.81
2017-09-02T02:36:24.798Z,13.87
2017-09-02T02:37:24.770Z,13.88
2017-09-02T02:38:24.760Z,13.87
2017-09-02T02:39:24.730Z,13.86
2017-09-02T02:40:24.710Z,13.83
2017-09-02T02:41:24.690Z,13.86
2017-09-02T02:42:24.359Z,13.73
2017-09-02T02:43:24.638Z,13.81
2017-09-02T02:44:24.309Z,13.79
2017-09-02T02:45:24.599Z,13.76
2017-09-02T02:46:23.979Z,13.76
2017-09-02T02:47:24.559Z,13.8
2017-09-02T02:49:24.513Z,13.73
2017-09-02T02:50:24.508Z,13.83
2017-09-02T02:51:24.478Z,13.75
2017-09-02T02:52:24.449Z,13.81
2017-09-02T02:53:24.427Z,13.72
2017-09-02T02:54:24.143Z,13.73
2017-09-02T02:55:24.375Z,13.75
2017-09-02T02:56:24.051Z,13.71
2017-09-02T02:57:24.036Z,13.73
2017-09-02T02:58:24.313Z,13.75
2017-09-02T02:59:24.290Z,13.8
2017-09-02T03:00:24.275Z,13.76
2017-09-02T03:01:24.251Z,13.76
2017-09-02T03:02:24.225Z,13.79
2017-09-02T03:03:24.208Z,13.72
2017-09-02T03:04:24.183Z,13.75
2017-09-02T03:05:24.162Z,13.71
2017-09-02T03:06:24.157Z,13.75
2017-09-02T03:07:24.119Z,13.61
2017-09-02T03:08:24.102Z,13.62
2017-09-02T03:09:24.077Z,13.63
2017-09-02T03:10:24.053Z,13.65
2017-09-02T03:11:24.026Z,13.61
2017-09-02T03:12:23.699Z,13.59
2017-09-02T03:13:23.676Z,13.55
2017-09-02T03:14:24.000Z,13.62
2017-09-02T03:15:23.946Z,13.62
2017-09-02T03:16:23.924Z,13.59
2017-09-02T03:17:23.907Z,13.62
2017-09-02T03:18:23.883Z,13.65
2017-09-02T03:19:23.857Z,13.62
2017-09-02T03:20:23.843Z,13.63
2017-09-02T03:21:23.506Z,13.62
2017-09-02T03:22:23.787Z,13.59
2017-09-02T03:23:23.773Z,13.62
2017-09-02T03:24:23.753Z,13.63
2017-09-02T03:25:23.729Z,13.59
2017-09-02T03:26:23.426Z,13.62
2017-09-02T03:27:23.675Z,13.54
2017-09-02T03:28:23.670Z,13.65
2017-09-02T03:29:23.636Z,13.65
2017-09-02T03:30:23.669Z,13.59
2017-09-02T03:31:23.648Z,13.54
2017-09-02T03:32:23.573Z,13.57
2017-09-02T03:33:23.550Z,13.59
2017-09-02T03:34:23.532Z,13.57
2017-09-02T03:35:23.513Z,13.54
2017-09-02T03:36:23.530Z,13.55
2017-09-02T03:37:23.473Z,13.57
2017-09-02T03:38:23.440Z,13.51
2017-09-02T03:39:23.116Z,13.62
2017-09-02T03:40:23.395Z,13.53
2017-09-02T03:41:23.378Z,13.59
2017-09-02T03:42:23.044Z,13.46
2017-09-02T03:43:23.328Z,13.54
2017-09-02T03:44:23.307Z,13.53
2017-09-02T03:45:23.289Z,13.48
2017-09-02T03:46:23.268Z,13.44
2017-09-02T03:47:22.941Z,13.46
2017-09-02T03:48:23.222Z,13.43
2017-09-02T03:49:23.200Z,13.47
2017-09-02T03:50:23.279Z,13.43
2017-09-02T03:51:22.852Z,13.44
2017-09-02T03:52:23.130Z,13.47
2017-09-02T03:53:23.114Z,13.53
2017-09-02T03:54:23.092Z,13.5
2017-09-02T03:55:23.075Z,13.48
2017-09-02T03:56:23.040Z,13.48
2017-09-02T03:57:22.721Z,13.5
2017-09-02T03:58:23.010Z,13.47
2017-09-02T03:59:22.990Z,13.53
2017-09-02T04:00:22.959Z,13.48
2017-09-02T04:01:22.936Z,13.48
2017-09-02T04:02:22.914Z,13.48
2017-09-02T04:03:22.939Z,13.46
2017-09-02T04:04:22.875Z,13.51
2017-09-02T04:05:22.899Z,13.5
2017-09-02T04:06:22.829Z,13.5
2017-09-02T04:07:22.801Z,13.51
2017-09-02T04:08:22.790Z,13.5
2017-09-02T04:09:22.754Z,13.5
2017-09-02T04:10:22.789Z,13.48
2017-09-02T04:11:22.724Z,13.47
2017-09-02T04:12:22.697Z,13.46
2017-09-02T04:13:22.685Z,13.46
2017-09-02T04:14:22.650Z,13.38
2017-09-02T04:15:22.644Z,13.38
2017-09-02T04:16:22.607Z,13.35
2017-09-02T04:17:22.582Z,13.29
2017-09-02T04:18:22.567Z,13.27
2017-09-02T04:19:22.535Z,13.24
2017-09-02T04:20:22.576Z,13.28
2017-09-02T04:21:22.499Z,13.19
2017-09-02T04:22:22.482Z,13.28
2017-09-02T04:23:22.451Z,13.29
2017-09-02T04:24:22.127Z,13.31
2017-09-02T04:25:22.417Z,13.22
2017-09-02T04:26:22.382Z,13.27
2017-09-02T04:27:22.362Z,13.29
2017-09-02T04:28:22.365Z,13.24
2017-09-02T04:29:22.324Z,13.19
2017-09-02T04:30:21.990Z,13.17
2017-09-02T04:31:22.277Z,13.13
2017-09-02T04:32:22.256Z,13.14
2017-09-02T04:33:22.231Z,13.19
2017-09-02T04:34:22.215Z,13.16
2017-09-02T04:35:22.186Z,13.17
2017-09-02T04:36:22.167Z,13.14
2017-09-02T04:37:22.144Z,13.12
2017-09-02T04:38:22.128Z,13.24
2017-09-02T04:39:22.102Z,13.12
2017-09-02T04:40:22.077Z,13.09
2017-09-02T04:41:22.060Z,13.04
2017-09-02T04:42:22.040Z,12.99
2017-09-02T04:43:22.057Z,13.06
2017-09-02T04:44:21.992Z,13.06
2017-09-02T04:45:21.967Z,13.03
2017-09-02T04:46:21.633Z,13.07
2017-09-02T04:47:21.926Z,12.94
2017-09-02T04:48:21.907Z,12.99
2017-09-02T04:49:21.883Z,13.06
2017-09-02T04:50:21.857Z,13.01
2017-09-02T04:51:21.832Z,12.91
2017-09-02T04:52:21.822Z,12.95
2017-09-02T04:53:21.791Z,12.98
2017-09-02T04:54:21.767Z,13.03
2017-09-02T04:55:21.753Z,12.99
2017-09-02T04:56:21.726Z,12.95
2017-09-02T04:57:22.008Z,13.06
2017-09-02T04:58:21.678Z,12.99
2017-09-02T04:59:21.661Z,13.1
2017-09-02T05:00:21.685Z,13.13
2017-09-02T05:01:21.612Z,13.06
2017-09-02T05:02:21.594Z,13.14
2017-09-02T05:03:21.321Z,13.22
2017-09-02T05:04:21.240Z,13.22
2017-09-02T05:05:21.533Z,13.16
2017-09-02T05:06:21.190Z,13.17
2017-09-02T05:07:21.169Z,13.21
2017-09-02T05:08:21.456Z,13.27
2017-09-02T05:09:21.444Z,13.28
2017-09-02T05:10:21.412Z,13.21
2017-09-02T05:11:21.393Z,13.1
2017-09-02T05:12:21.367Z,13.25
2017-09-02T05:13:21.350Z,13.16
2017-09-02T05:14:21.323Z,13.25
2017-09-02T05:15:21.306Z,13.22
2017-09-02T05:16:21.279Z,13.31
2017-09-02T05:17:20.949Z,13.46
2017-09-02T05:18:21.234Z,13.53
2017-09-02T05:19:21.220Z,13.62
2017-09-02T05:20:21.196Z,13.61
2017-09-02T05:21:21.170Z,13.63
2017-09-02T05:22:21.149Z,13.75
2017-09-02T05:23:21.127Z,13.71
2017-09-02T05:24:21.104Z,13.59
2017-09-02T05:25:20.781Z,13.68
2017-09-02T05:26:21.064Z,13.83
2017-09-02T05:27:21.039Z,13.72
2017-09-02T05:28:21.020Z,13.75
2017-09-02T05:29:20.997Z,13.8
2017-09-02T05:30:20.971Z,13.86
2017-09-02T05:31:20.965Z,13.75
2017-09-02T05:32:20.943Z,13.76
2017-09-02T05:33:20.910Z,13.81
2017-09-02T05:34:20.895Z,13.73
2017-09-02T05:35:20.862Z,13.75
2017-09-02T05:36:20.847Z,13.81
2017-09-02T05:37:20.823Z,13.79
2017-09-02T05:38:20.810Z,13.79
2017-09-02T05:39:20.791Z,13.83
2017-09-02T05:40:20.759Z,13.8
2017-09-02T05:41:20.741Z,13.88
2017-09-02T05:42:20.707Z,13.88
2017-09-02T05:43:20.690Z,13.94
2017-09-02T05:44:20.668Z,13.93
2017-09-02T05:45:20.651Z,13.94
2017-09-02T05:46:20.623Z,13.94
2017-09-02T05:47:20.607Z,13.94
2017-09-02T05:48:20.580Z,13.98
2017-09-02T05:49:20.572Z,14.08
2017-09-02T05:50:20.537Z,14.02
2017-09-02T05:51:20.572Z,14.12
2017-09-02T05:52:20.491Z,14.08
2017-09-02T05:53:20.483Z,14.13
2017-09-02T05:54:20.451Z,14.24
2017-09-02T05:55:20.457Z,14.19
2017-09-02T05:56:20.409Z,14.36
2017-09-02T05:57:20.387Z,14.59
2017-09-02T05:58:20.367Z,14.69
2017-09-02T05:59:20.356Z,15.01
2017-09-02T06:00:20.336Z,15.19
2017-09-02T06:01:20.300Z,15.31
2017-09-02T06:02:20.278Z,15.52
2017-09-02T06:03:20.004Z,15.78
2017-09-02T06:04:20.240Z,15.8
2017-09-02T06:05:20.221Z,15.85
2017-09-02T06:06:20.200Z,15.92
2017-09-02T06:07:19.874Z,15.99
2017-09-02T06:08:20.155Z,16.22
2017-09-02T06:09:20.134Z,16.41
2017-09-02T06:10:20.133Z,16.65
2017-09-02T06:11:20.095Z,16.85
2017-09-02T06:12:20.071Z,16.95
2017-09-02T06:13:20.049Z,17.15
2017-09-02T06:14:20.036Z,17.18
2017-09-02T06:15:20.019Z,17.28
2017-09-02T06:16:20.296Z,17.38
2017-09-02T06:17:19.972Z,17.39
2017-09-02T06:18:20.273Z,17.63
2017-09-02T06:19:19.942Z,17.81
2017-09-02T06:20:19.921Z,18.07
2017-09-02T06:21:19.893Z,18.21
2017-09-02T06:22:19.618Z,18.38
2017-09-02T06:23:19.859Z,18.38
2017-09-02T06:24:19.837Z,18.53
2017-09-02T06:25:19.821Z,18.69
2017-09-02T06:26:19.809Z,18.75
2017-09-02T06:27:19.789Z,18.94
2017-09-02T06:28:19.762Z,19.02
2017-09-02T06:29:19.736Z,19.02
2017-09-02T06:30:19.727Z,19.17
2017-09-02T06:31:19.403Z,19.12
2017-09-02T06:32:19.680Z,19.2
2017-09-02T06:33:19.717Z,19.24
2017-09-02T06:34:19.646Z,19.15
2017-09-02T06:35:19.628Z,19.16
2017-09-02T06:36:19.617Z,19.43
2017-09-02T06:37:19.613Z,19.52
2017-09-02T06:38:19.583Z,19.62
2017-09-02T06:39:19.553Z,19.61
2017-09-02T06:40:19.541Z,19.62
2017-09-02T06:41:19.211Z,19.62
2017-09-02T06:42:19.512Z,19.82
2017-09-02T06:43:19.492Z,19.64
2017-09-02T06:44:19.472Z,19.7
2017-09-02T06:45:19.448Z,19.7
2017-09-02T06:46:19.433Z,19.75
2017-09-02T06:47:19.416Z,19.92
2017-09-02T06:48:19.428Z,20.19
2017-09-02T06:49:19.383Z,20.48
2017-09-02T06:50:19.394Z,20.66
2017-09-02T06:51:19.039Z,20.64
2017-09-02T06:52:19.325Z,20.76
2017-09-02T06:53:19.315Z,20.96
2017-09-02T06:54:19.291Z,21.01
2017-09-02T06:55:19.285Z,20.9
2017-09-02T06:56:19.257Z,20.98
2017-09-02T06:57:18.941Z,20.91
2017-09-02T06:58:19.231Z,20.93
2017-09-02T06:59:19.213Z,21.06
2017-09-02T07:00:18.886Z,21.22
2017-09-02T07:01:19.179Z,21.43
2017-09-02T07:02:18.851Z,21.53
2017-09-02T07:03:18.834Z,21.66
2017-09-02T07:04:19.135Z,21.79
2017-09-02T07:05:19.118Z,21.74
2017-09-02T07:06:19.091Z,21.74
2017-09-02T07:07:19.077Z,21.94
2017-09-02T07:08:19.062Z,22.11
2017-09-02T07:09:19.049Z,22.11
2017-09-02T07:10:19.033Z,22.19
2017-09-02T07:11:19.025Z,22.2
2017-09-02T07:12:18.999Z,22.29
2017-09-02T07:13:18.990Z,22.38
2017-09-02T07:14:18.973Z,22.12
2017-09-02T07:15:18.962Z,22.14
2017-09-02T07:16:18.684Z,22.04
2017-09-02T07:17:18.943Z,22.15
2017-09-02T07:18:18.912Z,22.3
2017-09-02T07:19:18.898Z,22.56
2017-09-02T07:20:18.884Z,22.52
2017-09-02T07:21:18.860Z,22.51
2017-09-02T07:22:18.845Z,22.56
2017-09-02T07:23:18.526Z,22.64
2017-09-02T07:24:18.834Z,22.7
2017-09-02T07:25:18.522Z,22.61
2017-09-02T07:26:18.796Z,22.7
2017-09-02T07:27:18.473Z,22.84
2017-09-02T07:28:18.766Z,22.85
2017-09-02T07:29:18.742Z,22.79
2017-09-02T07:30:18.735Z,22.54
2017-09-02T07:31:18.413Z,22.59
2017-09-02T07:32:18.705Z,22.61
2017-09-02T07:33:18.786Z,22.75
2017-09-02T07:34:18.673Z,22.75
2017-09-02T07:35:18.671Z,22.81
2017-09-02T07:36:18.655Z,23.03
2017-09-02T07:37:18.645Z,23.11
2017-09-02T07:38:18.630Z,23.37
2017-09-02T07:39:18.605Z,23.45
2017-09-02T07:40:18.589Z,23.68
2017-09-02T07:41:18.579Z,23.9
2017-09-02T07:42:18.568Z,23.93
2017-09-02T07:43:18.598Z,24.08
2017-09-02T07:44:18.537Z,24.08
2017-09-02T07:45:18.521Z,24.09
2017-09-02T07:46:18.506Z,24.08
2017-09-02T07:47:18.498Z,24.26
2017-09-02T07:48:18.483Z,24.34
2017-09-02T07:49:18.474Z,24.46
2017-09-02T07:50:18.461Z,24.46
2017-09-02T07:51:18.137Z,24.42
2017-09-02T07:52:18.492Z,24.71
2017-09-02T07:53:18.421Z,24.82
2017-09-02T07:54:18.106Z,24.48
2017-09-02T07:55:18.082Z,24.21
2017-09-02T07:56:18.388Z,24.02
2017-09-02T07:57:18.408Z,24.08
2017-09-02T07:58:18.359Z,24.15
2017-09-02T07:59:18.342Z,23.96
2017-09-02T08:00:18.325Z,23.81
2017-09-02T08:01:18.320Z,23.69
2017-09-02T08:02:18.334Z,23.82
2017-09-02T08:03:18.289Z,23.9
2017-09-02T08:04:18.281Z,23.97
2017-09-02T08:05:18.268Z,24.08
2017-09-02T08:06:18.255Z,24.21
2017-09-02T08:07:18.246Z,24.24
2017-09-02T08:08:18.225Z,24.44
2017-09-02T08:09:18.229Z,24.89
2017-09-02T08:10:18.210Z,25.3
2017-09-02T08:11:17.893Z,25.53
2017-09-02T08:12:18.183Z,25.72
2017-09-02T08:13:18.177Z,25.59
2017-09-02T08:14:18.168Z,25.57
2017-09-02T08:15:18.143Z,25.41
2017-09-02T08:16:18.138Z,25.51
2017-09-02T08:17:18.126Z,25.79
2017-09-02T08:18:18.109Z,26.01
2017-09-02T08:19:18.092Z,26.27
2017-09-02T08:20:18.288Z,26.5
2017-09-02T08:21:18.077Z,26.29
2017-09-02T08:22:18.060Z,25.89
2017-09-02T08:23:18.059Z,25.45
2017-09-02T08:24:18.037Z,25.48
2017-09-02T08:25:18.071Z,25.53
2017-09-02T08:26:18.027Z,25.53
2017-09-02T08:27:17.700Z,25.59
2017-09-02T08:28:18.007Z,25.86
2017-09-02T08:29:17.683Z,26
2017-09-02T08:30:17.368Z,25.91
2017-09-02T08:31:17.665Z,25.93
2017-09-02T08:32:17.960Z,26.27
2017-09-02T08:33:17.947Z,26.6
2017-09-02T08:34:17.938Z,26.87
2017-09-02T08:35:17.986Z,26.94
2017-09-02T08:36:17.917Z,27.11
2017-09-02T08:37:17.900Z,27.3
2017-09-02T08:38:17.899Z,26.81
2017-09-02T08:39:17.882Z,25.97
2017-09-02T08:40:17.875Z,25.05
2017-09-02T08:41:17.913Z,24.29
2017-09-02T08:42:17.856Z,24.09
2017-09-02T08:43:17.843Z,24.12
2017-09-02T08:44:17.822Z,24.61
2017-09-02T08:45:17.816Z,24.98
2017-09-02T08:46:17.801Z,25.07
2017-09-02T08:47:17.475Z,25.14
2017-09-02T08:48:17.782Z,25.01
2017-09-02T08:49:17.768Z,25.19
2017-09-02T08:50:17.765Z,25.31
2017-09-02T08:51:17.429Z,25.16
2017-09-02T08:52:17.724Z,25.02
2017-09-02T08:53:17.723Z,25.08
2017-09-02T08:54:17.709Z,24.9
2017-09-02T08:55:17.690Z,24.93
2017-09-02T08:56:17.680Z,25.17
2017-09-02T08:57:17.674Z,25.54
2017-09-02T08:58:17.662Z,25.91
2017-09-02T08:59:17.644Z,26.19
2017-09-02T09:00:17.637Z,26.34
2017-09-02T09:01:17.623Z,26.51
2017-09-02T09:02:17.611Z,26.27
2017-09-02T09:03:17.600Z,26.31
2017-09-02T09:04:17.599Z,26.42
2017-09-02T09:05:17.581Z,26.53
2017-09-02T09:06:32.175Z,26.32
2017-09-02T09:07:17.561Z,25.93
2017-09-02T09:08:17.554Z,25.63
2017-09-02T09:09:17.545Z,25.35
2017-09-02T09:10:17.529Z,25.34
2017-09-02T09:11:17.524Z,25.31
2017-09-02T09:12:17.500Z,25.12
2017-09-02T09:13:17.517Z,24.87
2017-09-02T09:14:17.476Z,24.44
2017-09-02T09:15:17.766Z,23.93
2017-09-02T09:16:17.450Z,23.52
2017-09-02T09:17:17.125Z,23.14
2017-09-02T09:18:17.426Z,22.85
2017-09-02T09:19:17.421Z,22.45
2017-09-02T09:20:17.402Z,22.19
2017-09-02T09:21:17.386Z,21.75
2017-09-02T09:22:17.375Z,21.38
2017-09-02T09:23:17.386Z,21.11
2017-09-02T09:24:17.337Z,20.98
2017-09-02T09:25:17.632Z,21.34
2017-09-02T09:26:17.004Z,21.99
2017-09-02T09:27:17.299Z,22.41
2017-09-02T09:28:17.294Z,22.6
2017-09-02T09:29:17.269Z,22.57
2017-09-02T09:30:17.247Z,22.36
2017-09-02T09:31:17.238Z,22.17
2017-09-02T09:32:17.223Z,21.7
2017-09-02T09:33:16.895Z,21.53
2017-09-02T09:34:17.193Z,21.03
2017-09-02T09:35:17.176Z,20.9
2017-09-02T09:36:17.159Z,20.9
2017-09-02T09:37:17.136Z,20.73
2017-09-02T09:38:17.128Z,20.72
2017-09-02T09:39:17.120Z,21.13
2017-09-02T09:40:17.101Z,21.83
2017-09-02T09:41:17.081Z,22.48
2017-09-02T09:42:17.060Z,22.67
2017-09-02T09:43:16.746Z,23.03
2017-09-02T09:44:17.028Z,23.38
2017-09-02T09:45:17.072Z,23.69
2017-09-02T09:46:17.006Z,23.82
2017-09-02T09:47:16.988Z,23.64
2017-09-02T09:48:17.021Z,23.39
2017-09-02T09:49:16.975Z,23.01
2017-09-02T09:50:16.655Z,22.56
2017-09-02T09:51:16.926Z,21.98
2017-09-02T09:52:16.908Z,21.45
2017-09-02T09:53:16.897Z,21.05
2017-09-02T09:54:16.574Z,20.85
2017-09-02T09:55:16.867Z,20.6
2017-09-02T09:56:16.856Z,20.46
2017-09-02T09:57:16.829Z,20.2
2017-09-02T09:58:16.819Z,19.98
2017-09-02T09:59:16.792Z,19.79
2017-09-02T10:00:16.777Z,19.68
2017-09-02T10:01:16.456Z,19.62
2017-09-02T10:02:16.433Z,19.64
2017-09-02T10:03:16.778Z,19.65
2017-09-02T10:04:16.724Z,19.55
2017-09-02T10:05:16.699Z,19.58
2017-09-02T10:06:16.672Z,19.53
2017-09-02T10:07:16.657Z,19.39
2017-09-02T10:08:16.635Z,19.31
2017-09-02T10:09:16.618Z,19.62
2017-09-02T10:10:16.599Z,20.22
2017-09-02T10:11:16.311Z,20.9
2017-09-02T10:12:16.568Z,21.28
2017-09-02T10:13:16.551Z,21.75
2017-09-02T10:14:16.533Z,22.14
2017-09-02T10:15:16.520Z,22.61
2017-09-02T10:16:16.497Z,23
2017-09-02T10:17:16.496Z,23.39
2017-09-02T10:18:16.463Z,23.67
2017-09-02T10:19:16.458Z,23.75
2017-09-02T10:20:16.438Z,23.57
2017-09-02T10:21:16.422Z,23.44
2017-09-02T10:22:16.102Z,22.96
2017-09-02T10:23:16.395Z,22.79
2017-09-02T10:24:16.380Z,22.52
2017-09-02T10:25:16.427Z,22.39
2017-09-02T10:26:16.347Z,22.12
2017-09-02T10:27:16.330Z,22.04
2017-09-02T10:28:16.059Z,21.85
2017-09-02T10:29:16.304Z,21.7
2017-09-02T10:30:16.290Z,21.77
2017-09-02T10:31:16.275Z,21.73
2017-09-02T10:32:16.256Z,21.56
2017-09-02T10:33:15.935Z,21.55
2017-09-02T10:34:16.235Z,21.33
2017-09-02T10:35:16.224Z,21.31
2017-09-02T10:36:15.889Z,21.27
2017-09-02T10:37:17.151Z,21.06
2017-09-02T10:38:16.161Z,20.93
2017-09-02T10:39:16.148Z,20.88
2017-09-02T10:40:16.122Z,20.76
2017-09-02T10:41:16.107Z,20.5
2017-09-02T10:42:16.098Z,20.5
2017-09-02T10:43:16.079Z,20.37
2017-09-02T10:44:16.058Z,20.27
2017-09-02T10:45:15.738Z,20.19
2017-09-02T10:46:16.031Z,20.13
2017-09-02T10:47:16.018Z,19.8
2017-09-02T10:48:15.993Z,19.6
2017-09-02T10:49:15.712Z,19.55
2017-09-02T10:50:15.952Z,19.43
2017-09-02T10:51:15.631Z,19.49
2017-09-02T10:52:15.920Z,19.35
2017-09-02T10:53:15.904Z,19.27
2017-09-02T10:54:15.881Z,19.31
2017-09-02T10:55:15.866Z,19.45
2017-09-02T10:56:15.843Z,19.57
2017-09-02T10:57:15.833Z,19.58
2017-09-02T10:58:15.820Z,19.71
2017-09-02T10:59:15.791Z,19.71
2017-09-02T11:00:15.476Z,19.76
2017-09-02T11:01:15.463Z,19.8
2017-09-02T11:02:15.736Z,19.86
2017-09-02T11:03:15.729Z,19.95
2017-09-02T11:04:15.757Z,19.94
2017-09-02T11:05:15.686Z,20.02
2017-09-02T11:06:15.667Z,20.17
2017-09-02T11:07:15.651Z,20.19
2017-09-02T11:08:15.633Z,20.15
2017-09-02T11:09:15.606Z,20.15
2017-09-02T11:10:15.586Z,20.22
2017-09-02T11:11:15.579Z,20.17
2017-09-02T11:12:15.546Z,20.2
2017-09-02T11:13:15.542Z,20.19
2017-09-02T11:14:15.523Z,20.15
2017-09-02T11:15:14.896Z,20.12
2017-09-02T11:16:15.479Z,20.22
2017-09-02T11:17:15.518Z,20.27
2017-09-02T11:18:15.441Z,20.17
2017-09-02T11:19:15.433Z,20.26
2017-09-02T11:20:15.403Z,20.3
2017-09-02T11:21:15.432Z,20.27
2017-09-02T11:22:15.375Z,20.23
2017-09-02T11:23:15.046Z,20.19
2017-09-02T11:24:15.329Z,20.17
2017-09-02T11:25:15.308Z,20.12
2017-09-02T11:26:15.295Z,20.17
2017-09-02T11:27:15.276Z,19.98
2017-09-02T11:28:15.258Z,19.98
2017-09-02T11:29:14.933Z,19.94
2017-09-02T11:30:15.224Z,19.98
2017-09-02T11:31:15.196Z,19.9
2017-09-02T11:32:15.231Z,19.8
2017-09-02T11:33:15.167Z,19.78
2017-09-02T11:34:14.832Z,19.7
2017-09-02T11:35:15.128Z,19.71
2017-09-02T11:36:15.098Z,19.53
2017-09-02T11:37:15.089Z,19.42
2017-09-02T11:38:15.069Z,19.45
2017-09-02T11:39:14.744Z,19.46
2017-09-02T11:40:15.080Z,19.27
2017-09-02T11:41:15.087Z,19.42
2017-09-02T11:42:14.992Z,19.42
2017-09-02T11:43:15.021Z,19.43
2017-09-02T11:44:14.950Z,19.39
2017-09-02T11:45:14.931Z,19.57
2017-09-02T11:46:14.920Z,19.58
2017-09-02T11:47:14.907Z,19.6
2017-09-02T11:48:14.905Z,19.55
2017-09-02T11:49:14.545Z,19.6
2017-09-02T11:50:14.948Z,19.72
2017-09-02T11:51:14.512Z,19.67
2017-09-02T11:52:14.805Z,19.68
2017-09-02T11:53:14.783Z,19.67
2017-09-02T11:54:14.457Z,19.61
2017-09-02T11:55:14.762Z,19.58
2017-09-02T11:56:14.728Z,19.6
2017-09-02T11:57:14.717Z,19.58
2017-09-02T11:58:14.693Z,19.65
2017-09-02T11:59:14.661Z,19.68
2017-09-02T12:00:14.645Z,19.64
2017-09-02T12:01:14.322Z,19.64
2017-09-02T12:02:14.612Z,19.6
2017-09-02T12:03:14.595Z,19.57
2017-09-02T12:04:14.584Z,19.58
2017-09-02T12:05:14.561Z,19.57
2017-09-02T12:06:14.535Z,19.52
2017-09-02T12:07:14.207Z,19.61
2017-09-02T12:08:14.493Z,19.71
2017-09-02T12:09:14.481Z,19.64
2017-09-02T12:10:14.461Z,19.65
2017-09-02T12:11:14.436Z,19.71
2017-09-02T12:12:14.419Z,19.76
2017-09-02T12:13:14.397Z,19.7
2017-09-02T12:14:14.374Z,19.78
2017-09-02T12:15:14.374Z,19.79
2017-09-02T12:16:14.374Z,19.82
2017-09-02T12:17:14.317Z,19.71
2017-09-02T12:18:14.299Z,19.67
2017-09-02T12:19:14.284Z,19.75
2017-09-02T12:20:13.953Z,19.85
2017-09-02T12:21:14.248Z,19.86
2017-09-02T12:22:14.229Z,19.92
2017-09-02T12:23:14.207Z,20.08
2017-09-02T12:24:14.194Z,20.08
2017-09-02T12:25:14.169Z,20.19
2017-09-02T12:26:14.152Z,20.33
2017-09-02T12:27:14.128Z,20.4
2017-09-02T12:28:14.121Z,20.34
2017-09-02T12:29:14.092Z,20.34
2017-09-02T12:30:14.075Z,20.48
2017-09-02T12:31:14.053Z,20.46
2017-09-02T12:32:14.048Z,20.51
2017-09-02T12:33:14.021Z,20.41
2017-09-02T12:34:13.690Z,20.34
2017-09-02T12:35:13.982Z,20.34
2017-09-02T12:36:13.963Z,20.3
2017-09-02T12:37:13.942Z,20.15
2017-09-02T12:38:13.926Z,20.15
2017-09-02T12:39:13.904Z,19.98
2017-09-02T12:40:13.888Z,19.95
2017-09-02T12:41:13.863Z,19.86
2017-09-02T12:42:13.846Z,19.82
2017-09-02T12:43:13.831Z,19.83
2017-09-02T12:44:13.825Z,19.85
2017-09-02T12:45:13.789Z,19.85
2017-09-02T12:46:13.802Z,19.92
2017-09-02T12:47:13.768Z,19.94
2017-09-02T12:48:13.741Z,19.95
2017-09-02T12:49:13.716Z,20.07
2017-09-02T12:50:13.698Z,20.12
2017-09-02T12:51:13.676Z,20.05
2017-09-02T12:52:13.654Z,20.16
2017-09-02T12:53:13.641Z,20.17
2017-09-02T12:54:13.636Z,20.19
2017-09-02T12:55:13.663Z,20.37
2017-09-02T12:56:13.282Z,20.44